Time;durP1;ratioP1;P1;durP2;ratioP2;P2;SDS_P1;SDS_P2;PMS_P1;PMS_P2;Temp;Humidity;BMP_temperature;BMP_pressure;BME280_temperature;BME280_humidity;BME280_pressure;Samples;Min_cycle;Max_cycle;Signal;HPM_P1;HPM_P2
2023/03/26 00:02:03;;;;;;;61.05;55.88;;;;;;;12.19;100.00;100292.75;5050096;28;20057;-81
2023/03/26 00:04:32;;;;;;;55.13;50.83;;;;;;;12.30;100.00;100289.31;5043654;28;20050;-81
2023/03/26 00:06:59;;;;;;;53.80;49.10;;;;;;;12.24;100.00;100292.09;5044461;28;20042;-81
2023/03/26 00:09:28;;;;;;;62.38;57.08;;;;;;;12.11;100.00;100296.56;5043603;28;20049;-81
2023/03/26 00:11:55;;;;;;;77.82;71.82;;;;;;;11.97;100.00;100295.13;5042372;28;20519;-82
2023/03/26 00:14:22;;;;;;;63.72;58.70;;;;;;;12.13;100.00;100283.84;5050689;28;20051;-82
2023/03/26 00:16:49;;;;;;;63.28;57.88;;;;;;;11.87;100.00;100285.00;5045479;28;20580;-82
2023/03/26 00:19:17;;;;;;;63.33;57.97;;;;;;;11.83;100.00;100286.47;5047725;28;20045;-82
2023/03/26 00:21:44;;;;;;;67.75;61.78;;;;;;;11.96;100.00;100271.41;5043042;28;20059;-81
2023/03/26 00:24:13;;;;;;;61.03;55.60;;;;;;;12.15;100.00;100260.47;5048759;28;20072;-81
2023/03/26 00:26:40;;;;;;;62.83;57.33;;;;;;;11.85;100.00;100263.13;5052768;28;20099;-81
2023/03/26 00:29:09;;;;;;;60.22;55.13;;;;;;;11.94;100.00;100247.66;5050280;28;20057;-81
2023/03/26 00:31:38;;;;;;;66.40;61.15;;;;;;;12.00;100.00;100253.94;5040824;28;20084;-81
2023/03/26 00:34:05;;;;;;;64.57;59.22;;;;;;;11.82;100.00;100276.84;5050792;28;20044;-81
2023/03/26 00:36:36;;;;;;;68.60;63.10;;;;;;;12.03;100.00;100283.56;5049034;28;20110;-81
2023/03/26 00:39:04;;;;;;;65.07;59.47;;;;;;;11.91;100.00;100307.47;5052377;28;20050;-81
2023/03/26 00:41:31;;;;;;;68.22;62.35;;;;;;;12.05;100.00;100294.00;5055572;28;20045;-82
2023/03/26 00:43:59;;;;;;;92.18;84.88;;;;;;;11.52;100.00;100307.91;5049546;28;20084;-82
2023/03/26 00:46:28;;;;;;;90.70;83.07;;;;;;;11.71;100.00;100298.91;5047630;28;20480;-82
2023/03/26 00:48:57;;;;;;;87.55;80.25;;;;;;;11.64;100.00;100295.50;5047240;28;20103;-82
2023/03/26 00:51:24;;;;;;;105.47;96.85;;;;;;;11.60;100.00;100294.31;5046312;28;20049;-81
2023/03/26 00:53:52;;;;;;;115.78;106.65;;;;;;;11.69;100.00;100277.84;5053622;28;20110;-82
2023/03/26 00:56:19;;;;;;;108.13;99.40;;;;;;;11.33;100.00;100299.13;5046653;28;20107;-82
2023/03/26 00:58:48;;;;;;;128.20;118.10;;;;;;;11.42;100.00;100311.09;5051523;28;20110;-81
2023/03/26 01:01:17;;;;;;;116.03;106.78;;;;;;;11.46;100.00;100322.91;5039799;28;20045;-82
2023/03/26 01:03:45;;;;;;;112.80;103.60;;;;;;;11.34;100.00;100330.00;5047596;28;20037;-81
2023/03/26 01:06:19;;;;;;;116.85;107.75;;;;;;;11.53;100.00;100336.13;5047986;28;20105;-81
2023/03/26 01:08:49;;;;;;;124.75;115.40;;;;;;;11.46;100.00;100345.00;5049505;28;20128;-82
2023/03/26 01:11:20;;;;;;;113.68;104.65;;;;;;;11.61;100.00;100341.16;5048830;28;20103;-82
2023/03/26 01:13:49;;;;;;;110.43;101.70;;;;;;;11.30;100.00;100350.91;5042684;28;20053;-81
2023/03/26 01:16:26;;;;;;;114.10;104.80;;;;;;;11.26;100.00;100364.84;5050550;28;20489;-81
2023/03/26 01:18:53;;;;;;;93.07;85.25;;;;;;;11.28;100.00;100370.75;5044932;28;20050;-81
2023/03/26 01:21:27;;;;;;;100.43;91.93;;;;;;;11.18;100.00;100377.38;5047368;28;20470;-82
2023/03/26 01:24:00;;;;;;;113.22;104.00;;;;;;;11.04;100.00;100375.84;5047105;28;20108;-82
2023/03/26 01:26:40;;;;;;;113.50;104.03;;;;;;;10.96;100.00;100392.09;5042881;28;20087;-82
2023/03/26 01:29:17;;;;;;;115.28;106.30;;;;;;;11.20;100.00;100382.50;5045997;28;20052;-82
2023/03/26 01:31:55;;;;;;;104.05;95.35;;;;;;;11.11;100.00;100400.56;5050125;28;20046;-81
2023/03/26 01:34:29;;;;;;;118.18;108.82;;;;;;;11.32;100.00;100387.91;5051181;28;20046;-82
2023/03/26 01:37:02;;;;;;;129.73;119.68;;;;;;;11.21;100.00;100400.06;5046243;28;20045;-81
2023/03/26 01:39:37;;;;;;;142.98;131.95;;;;;;;11.20;100.00;100393.94;5049048;28;20046;-82
2023/03/26 01:42:10;;;;;;;158.52;146.52;;;;;;;11.29;100.00;100396.31;5046366;28;20487;-82
2023/03/26 01:44:43;;;;;;;126.20;116.13;;;;;;;11.13;100.00;100382.53;5046201;28;20048;-82
2023/03/26 01:47:12;;;;;;;119.07;109.63;;;;;;;11.12;100.00;100372.94;5046519;28;20503;-81
2023/03/26 01:49:39;;;;;;;111.32;102.38;;;;;;;11.03;100.00;100373.44;5047401;28;20045;-81
2023/03/26 01:52:12;;;;;;;132.82;122.25;;;;;;;10.84;100.00;100367.25;5048712;28;20052;-81
2023/03/26 01:54:41;;;;;;;125.63;115.53;;;;;;;10.77;100.00;100370.75;5048390;28;20038;-81
2023/03/26 01:57:17;;;;;;;106.70;97.70;;;;;;;10.70;100.00;100361.19;5046465;28;20057;-82
2023/03/26 02:00:11;;;;;;;151.15;139.48;;;;;;;10.84;100.00;100361.94;5036287;28;20053;-82
2023/03/26 02:02:53;;;;;;;190.23;175.35;;;;;;;10.75;100.00;100356.06;5044025;28;20053;-82
2023/03/26 02:05:24;;;;;;;126.57;116.30;;;;;;;10.80;100.00;100366.84;5047512;28;20132;-82
2023/03/26 02:07:57;;;;;;;141.63;130.52;;;;;;;10.68;100.00;100361.44;5044719;28;20128;-82
2023/03/26 02:10:28;;;;;;;140.50;129.30;;;;;;;10.80;100.00;100369.50;5045410;28;20140;-81
2023/03/26 02:12:55;;;;;;;138.23;126.95;;;;;;;10.79;100.00;100370.53;5045923;28;20400;-82
2023/03/26 02:15:23;;;;;;;146.50;134.77;;;;;;;10.77;100.00;100378.72;5051426;28;20045;-81
2023/03/26 02:17:51;;;;;;;158.63;145.88;;;;;;;10.73;100.00;100358.13;5045643;28;20045;-81
2023/03/26 02:20:19;;;;;;;161.10;148.90;;;;;;;10.82;100.00;100361.31;5045204;28;20053;-81
2023/03/26 02:22:46;;;;;;;153.88;141.55;;;;;;;10.82;100.00;100367.44;5045968;28;20091;-82
2023/03/26 02:25:15;;;;;;;129.20;118.20;;;;;;;11.08;100.00;100361.13;5044874;28;20049;-82
2023/03/26 02:27:43;;;;;;;130.70;119.75;;;;;;;11.11;100.00;100359.88;5050261;28;20103;-82
2023/03/26 02:30:12;;;;;;;150.40;138.45;;;;;;;10.98;100.00;100368.75;5043622;28;20045;-82
2023/03/26 02:32:39;;;;;;;123.75;113.10;;;;;;;10.98;100.00;100363.44;5048072;28;20574;-82
2023/03/26 02:35:07;;;;;;;131.05;120.25;;;;;;;11.03;100.00;100363.59;5043796;28;20049;-82
2023/03/26 02:37:33;;;;;;;151.00;138.93;;;;;;;11.10;100.00;100374.97;5052608;28;20057;-82
2023/03/26 02:40:01;;;;;;;125.60;115.15;;;;;;;11.10;100.00;100374.19;5049915;28;20057;-82
2023/03/26 02:42:27;;;;;;;110.68;101.00;;;;;;;11.00;100.00;100367.50;5045200;28;20045;-82
2023/03/26 02:44:56;;;;;;;121.07;110.68;;;;;;;11.14;100.00;100376.19;5043627;28;20046;-81
2023/03/26 02:47:22;;;;;;;139.80;128.40;;;;;;;10.93;100.00;100377.38;5044740;28;20122;-81
2023/03/26 02:49:49;;;;;;;153.75;140.95;;;;;;;11.01;100.00;100378.94;5044548;28;20106;-81
2023/03/26 02:52:17;;;;;;;137.40;125.57;;;;;;;11.06;100.00;100371.16;5044014;28;20103;-82
2023/03/26 02:54:44;;;;;;;106.93;97.63;;;;;;;11.08;100.00;100376.25;5043893;28;20045;-81
2023/03/26 02:57:11;;;;;;;125.57;114.97;;;;;;;11.12;100.00;100382.75;5045466;28;20045;-82
2023/03/26 02:59:37;;;;;;;108.25;98.88;;;;;;;11.19;100.00;100383.50;5050641;28;20597;-82
2023/03/26 03:02:06;;;;;;;124.82;114.55;;;;;;;11.22;100.00;100391.03;5049336;28;20049;-82
2023/03/26 03:04:33;;;;;;;123.30;112.82;;;;;;;11.28;100.00;100384.03;5044533;28;20045;-81
2023/03/26 03:06:59;;;;;;;118.07;108.07;;;;;;;11.11;100.00;100383.78;5049820;28;20119;-82
2023/03/26 03:09:26;;;;;;;110.32;100.93;;;;;;;11.13;100.00;100384.38;5049310;28;20080;-81
2023/03/26 03:11:53;;;;;;;108.53;99.43;;;;;;;10.96;100.00;100387.59;5045877;28;20057;-81
2023/03/26 03:14:20;;;;;;;122.22;112.82;;;;;;;11.17;100.00;100381.06;5043273;28;20071;-81
2023/03/26 03:16:47;;;;;;;115.75;106.25;;;;;;;11.04;100.00;100383.00;5048861;28;20045;-82
2023/03/26 03:19:15;;;;;;;110.15;101.20;;;;;;;11.48;100.00;100383.88;5037768;28;20049;-82
2023/03/26 03:21:42;;;;;;;106.63;97.35;;;;;;;10.77;100.00;100385.88;5050098;28;20065;-82
2023/03/26 03:24:12;;;;;;;125.38;115.00;;;;;;;10.98;100.00;100387.34;5047788;28;20048;-82
2023/03/26 03:26:41;;;;;;;113.95;104.18;;;;;;;11.15;100.00;100390.28;5048159;28;20119;-82
2023/03/26 03:29:09;;;;;;;103.20;94.10;;;;;;;11.16;100.00;100382.09;5034469;28;20052;-82
2023/03/26 03:31:36;;;;;;;104.63;95.25;;;;;;;10.94;100.00;100383.50;5036683;28;20103;-82
2023/03/26 03:34:02;;;;;;;122.53;112.30;;;;;;;10.78;100.00;100384.84;5052992;28;20132;-82
2023/03/26 03:36:32;;;;;;;129.93;118.97;;;;;;;10.98;100.00;100392.66;5041718;28;20502;-82
2023/03/26 03:39:01;;;;;;;104.97;95.80;;;;;;;11.00;100.00;100387.97;5047240;28;20049;-82
2023/03/26 03:41:28;;;;;;;129.13;118.20;;;;;;;10.77;100.00;100391.19;5041792;28;20044;-82
2023/03/26 03:43:55;;;;;;;127.82;117.28;;;;;;;10.85;100.00;100371.53;5045634;28;20049;-82
2023/03/26 03:46:21;;;;;;;121.38;110.90;;;;;;;10.92;100.00;100367.78;5042890;28;20111;-81
2023/03/26 03:48:48;;;;;;;105.43;96.80;;;;;;;10.90;100.00;100385.78;5046822;28;20115;-82
2023/03/26 03:51:15;;;;;;;108.43;99.47;;;;;;;11.14;100.00;100376.19;5043523;28;20136;-81
2023/03/26 03:53:44;;;;;;;100.63;92.20;;;;;;;11.08;100.00;100376.25;5046816;28;20061;-82
2023/03/26 03:56:13;;;;;;;117.53;107.90;;;;;;;10.88;100.00;100385.19;5040129;28;20053;-81
2023/03/26 03:58:41;;;;;;;107.95;98.97;;;;;;;10.90;100.00;100377.00;5044718;28;20063;-81
2023/03/26 04:01:08;;;;;;;118.45;108.70;;;;;;;10.84;100.00;100383.19;5052073;28;20049;-82
2023/03/26 04:03:37;;;;;;;93.55;85.95;;;;;;;10.69;100.00;100378.19;5046376;28;20107;-82
2023/03/26 04:06:05;;;;;;;97.63;89.53;;;;;;;10.80;100.00;100380.13;5050388;28;20053;-82
2023/03/26 04:08:33;;;;;;;92.75;84.65;;;;;;;10.81;100.00;100387.09;5046383;28;20056;-81
2023/03/26 04:11:01;;;;;;;98.30;89.93;;;;;;;10.86;100.00;100379.28;5043151;28;20488;-82
2023/03/26 04:13:28;;;;;;;98.97;90.38;;;;;;;10.59;100.00;100385.78;5043612;28;20049;-81
2023/03/26 04:15:55;;;;;;;106.07;97.18;;;;;;;10.64;100.00;100386.78;5044804;28;20054;-82
2023/03/26 04:18:22;;;;;;;103.30;94.30;;;;;;;10.56;100.00;100389.69;5047818;28;20049;-81
2023/03/26 04:20:49;;;;;;;92.03;83.93;;;;;;;10.72;100.00;100391.84;5039564;28;20045;-82
2023/03/26 04:23:18;;;;;;;96.65;88.65;;;;;;;10.62;100.00;100382.69;5047768;28;20465;-81
2023/03/26 04:25:47;;;;;;;94.28;86.38;;;;;;;10.44;100.00;100381.59;5043292;28;20041;-82
2023/03/26 04:28:26;;;;;;;90.18;82.57;;;;;;;10.50;100.00;100395.88;5042424;28;20115;-81
2023/03/26 04:30:53;;;;;;;96.10;88.20;;;;;;;10.48;100.00;100388.09;5050866;28;20052;-81
2023/03/26 04:33:20;;;;;;;93.22;85.78;;;;;;;10.64;100.00;100389.44;5042720;28;20112;-82
2023/03/26 04:35:48;;;;;;;94.18;86.65;;;;;;;10.68;100.00;100388.00;5050251;28;20049;-82
2023/03/26 04:38:17;;;;;;;97.03;89.50;;;;;;;10.41;100.00;100399.78;5044098;28;20132;-82
2023/03/26 04:40:46;;;;;;;87.18;80.40;;;;;;;10.78;100.00;100390.16;5045880;28;20084;-81
2023/03/26 04:43:16;;;;;;;82.82;76.45;;;;;;;10.66;100.00;100394.53;5042116;28;20059;-82
2023/03/26 04:45:44;;;;;;;83.97;77.57;;;;;;;10.50;100.00;100395.88;5046165;28;20045;-82
2023/03/26 04:48:13;;;;;;;81.55;75.15;;;;;;;10.72;100.00;100397.16;5041186;28;20054;-81
2023/03/26 04:50:41;;;;;;;78.70;72.70;;;;;;;10.63;100.00;100384.34;5044500;28;20060;-82
2023/03/26 04:53:12;;;;;;;83.20;76.88;;;;;;;10.74;100.00;100389.78;5047647;28;20076;-82
2023/03/26 04:55:45;;;;;;;79.22;73.00;;;;;;;10.53;100.00;100393.59;5043070;28;20053;-82
2023/03/26 04:58:12;;;;;;;92.35;85.45;;;;;;;10.52;100.00;100399.09;5046911;28;20052;-82
2023/03/26 05:00:41;;;;;;;85.05;78.93;;;;;;;10.54;100.00;100389.09;5055307;28;20067;-82
2023/03/26 05:03:10;;;;;;;79.40;73.30;;;;;;;10.51;100.00;100397.47;5050818;28;20103;-82
2023/03/26 05:05:37;;;;;;;77.88;71.97;;;;;;;10.70;100.00;100396.53;5046167;28;20057;-82
2023/03/26 05:08:04;;;;;;;75.07;69.47;;;;;;;10.78;100.00;100398.13;5049044;28;20057;-82
2023/03/26 05:10:31;;;;;;;67.25;62.25;;;;;;;10.82;100.00;100401.97;5047077;28;20682;-82
2023/03/26 05:12:58;;;;;;;67.22;61.75;;;;;;;10.63;100.00;100410.91;5050404;28;20115;-82
2023/03/26 05:15:25;;;;;;;65.68;60.58;;;;;;;10.82;100.00;100403.84;5049616;28;20045;-82
2023/03/26 05:17:54;;;;;;;66.75;61.50;;;;;;;10.94;100.00;100396.78;5045061;28;20103;-82
2023/03/26 05:20:23;;;;;;;64.65;59.60;;;;;;;11.04;100.00;100412.25;4692121;28;10000471;-82
2023/03/26 05:22:50;;;;;;;65.07;60.08;;;;;;;10.72;100.00;100417.59;5027375;28;20110;-81
2023/03/26 05:25:18;;;;;;;63.70;58.38;;;;;;;10.51;100.00;100437.31;5025574;28;20050;-81
2023/03/26 05:27:45;;;;;;;61.03;56.38;;;;;;;10.48;100.00;100409.34;5019915;28;20054;-82
2023/03/26 05:30:14;;;;;;;66.40;60.97;;;;;;;10.39;100.00;100436.34;5021991;28;20053;-81
2023/03/26 05:32:41;;;;;;;64.78;59.65;;;;;;;10.33;100.00;100445.97;5023524;28;20054;-82
2023/03/26 05:35:10;;;;;;;67.13;61.67;;;;;;;10.22;100.00;100455.38;5028338;28;20115;-82
2023/03/26 05:37:37;;;;;;;74.22;68.22;;;;;;;9.97;100.00;100451.78;5024981;28;20113;-81
2023/03/26 05:40:10;;;;;;;82.82;75.93;;;;;;;10.07;100.00;100460.91;5018667;28;20127;-81
2023/03/26 05:42:36;;;;;;;;;;;;;;;9.90;100.00;100462.41;5024451;28;20111;-81
2023/03/26 05:45:03;;;;;;;78.03;71.28;;;;;;;10.06;100.00;100471.75;5025493;28;19925;-81
2023/03/26 05:47:30;;;;;;;82.82;76.07;;;;;;;9.91;100.00;100473.84;5020239;28;20049;-82
2023/03/26 05:49:57;;;;;;;77.85;71.15;;;;;;;9.88;100.00;100480.38;5024755;28;20060;-82
2023/03/26 05:52:26;;;;;;;81.93;75.63;;;;;;;10.25;100.00;100485.97;5024058;28;20049;-82
2023/03/26 05:54:53;;;;;;;85.28;78.55;;;;;;;9.80;100.00;100485.88;5019591;28;20104;-81
2023/03/26 05:57:21;;;;;;;81.60;75.50;;;;;;;10.00;100.00;100491.16;5023916;28;20319;-82
2023/03/26 05:59:48;;;;;;;66.50;61.17;;;;;;;10.31;100.00;100499.25;5019006;28;20080;-82
2023/03/26 06:02:14;;;;;;;65.70;60.72;;;;;;;10.33;100.00;100488.44;5022979;28;20498;-82
2023/03/26 06:04:41;;;;;;;64.30;59.20;;;;;;;9.91;100.00;100485.25;5023611;28;20042;-82
2023/03/26 06:07:09;;;;;;;67.10;61.67;;;;;;;10.16;100.00;100481.94;5025787;28;20054;-81
2023/03/26 06:09:38;;;;;;;62.78;57.47;;;;;;;9.82;100.00;100486.50;5022811;28;20056;-81
2023/03/26 06:12:05;;;;;;;65.72;60.33;;;;;;;9.88;100.00;100482.22;5022254;28;20061;-81
2023/03/26 06:14:32;;;;;;;64.38;58.95;;;;;;;9.86;100.00;100477.94;5025552;28;20573;-82
2023/03/26 06:16:59;;;;;;;64.80;59.40;;;;;;;10.01;100.00;100487.47;5023483;28;20045;-81
2023/03/26 06:19:26;;;;;;;74.35;68.28;;;;;;;10.04;100.00;100479.91;5026881;28;20109;-81
2023/03/26 06:21:52;;;;;;;71.50;65.95;;;;;;;10.17;100.00;100483.59;5026112;28;20071;-81
2023/03/26 06:24:19;;;;;;;72.07;66.60;;;;;;;9.95;100.00;100481.16;5019906;28;20057;-82
2023/03/26 06:26:47;;;;;;;68.90;63.50;;;;;;;9.87;100.00;100484.06;5020384;28;20042;-82
2023/03/26 06:29:14;;;;;;;68.95;63.35;;;;;;;10.35;100.00;100488.22;5021849;28;20049;-82
2023/03/26 06:31:41;;;;;;;70.90;65.20;;;;;;;10.49;100.00;100485.31;5022049;28;20420;-81
2023/03/26 06:34:08;;;;;;;61.00;55.90;;;;;;;10.54;100.00;100490.00;5025913;28;20046;-82
2023/03/26 06:36:35;;;;;;;55.58;51.08;;;;;;;10.28;100.00;100480.28;5025345;28;20140;-82
2023/03/26 06:39:02;;;;;;;61.25;56.25;;;;;;;10.39;100.00;100479.66;5031737;28;20128;-82
2023/03/26 06:41:29;;;;;;;54.03;49.20;;;;;;;10.69;100.00;100489.72;5023756;28;20041;-82
2023/03/26 06:43:57;;;;;;;56.38;51.85;;;;;;;10.84;100.00;100479.63;5027065;28;20125;-81
2023/03/26 06:46:24;;;;;;;52.63;48.58;;;;;;;10.73;100.00;100475.81;5024383;28;20053;-82
2023/03/26 06:48:52;;;;;;;44.22;40.75;;;;;;;10.50;100.00;100488.81;5024658;28;20111;-81
2023/03/26 06:51:19;;;;;;;48.50;44.30;;;;;;;10.72;100.00;100479.50;5024225;28;20052;-82
2023/03/26 06:53:46;;;;;;;50.17;45.70;;;;;;;10.79;100.00;100484.75;5023530;28;20050;-82
2023/03/26 06:56:13;;;;;;;47.40;43.50;;;;;;;10.85;100.00;100491.88;5030113;28;20505;-81
2023/03/26 06:58:40;;;;;;;45.72;42.10;;;;;;;10.76;100.00;100499.28;5024752;28;20122;-82
2023/03/26 07:01:09;;;;;;;47.28;43.00;;;;;;;10.68;100.00;100494.25;5026868;28;20140;-81
2023/03/26 07:03:36;;;;;;;44.25;40.75;;;;;;;10.97;100.00;100487.53;5028816;28;20081;-82
2023/03/26 07:06:03;;;;;;;44.25;40.33;;;;;;;10.49;100.00;100503.91;5026951;28;20076;-82
2023/03/26 07:08:30;;;;;;;45.05;41.40;;;;;;;10.75;100.00;100512.78;5023784;28;20080;-82
2023/03/26 07:11:04;;;;;;;44.53;41.15;;;;;;;11.13;100.00;100518.09;5023224;28;20046;-82
2023/03/26 07:13:31;;;;;;;44.83;41.30;;;;;;;11.26;100.00;100517.19;5044524;28;20063;-83
2023/03/26 07:15:57;;;;;;;43.17;39.72;;;;;;;10.96;100.00;100515.13;5047162;28;20053;-83
2023/03/26 07:18:26;;;;;;;43.78;40.28;;;;;;;11.22;100.00;100513.31;5042941;28;20050;-82
2023/03/26 07:20:53;;;;;;;43.10;39.78;;;;;;;11.20;100.00;100508.25;5045731;28;20050;-83
2023/03/26 07:23:20;;;;;;;44.05;40.22;;;;;;;11.15;100.00;100501.94;5046798;28;20046;-82
2023/03/26 07:25:48;;;;;;;42.03;38.67;;;;;;;11.32;100.00;100499.59;5046383;28;20026;-82
2023/03/26 07:28:24;;;;;;;39.45;36.22;;;;;;;11.50;100.00;100509.44;5044306;28;20132;-82
2023/03/26 07:30:59;;;;;;;42.38;38.78;;;;;;;11.98;100.00;100506.19;5044230;28;20125;-83
2023/03/26 07:33:35;;;;;;;39.00;35.90;;;;;;;12.52;100.00;100513.38;5035252;28;20053;-82
2023/03/26 07:36:11;;;;;;;34.75;31.80;;;;;;;12.54;100.00;100505.97;5047444;28;20058;-83
2023/03/26 07:38:48;;;;;;;36.20;33.20;;;;;;;13.07;100.00;100509.78;5046304;28;20044;-83
2023/03/26 07:41:23;;;;;;;33.10;30.70;;;;;;;12.73;100.00;100516.59;5047304;28;20392;-83
2023/03/26 07:44:03;;;;;;;33.85;30.80;;;;;;;13.03;100.00;100513.94;5047713;28;20103;-82
2023/03/26 07:46:33;;;;;;;31.65;29.25;;;;;;;13.06;100.00;100514.28;5043801;28;20473;-82
2023/03/26 07:49:03;;;;;;;31.05;28.65;;;;;;;13.05;100.00;100512.69;5042021;28;20054;-82
2023/03/26 07:51:30;;;;;;;29.20;27.20;;;;;;;12.88;100.00;100508.22;5044083;28;20113;-83
2023/03/26 07:53:59;;;;;;;28.30;26.10;;;;;;;13.05;100.00;100503.88;5043286;28;20061;-83
2023/03/26 07:56:33;;;;;;;27.55;25.65;;;;;;;12.98;100.00;100511.13;5042507;28;20040;-82
2023/03/26 07:59:16;;;;;;;29.70;27.60;;;;;;;13.14;100.00;100523.03;5047111;28;20053;-83
2023/03/26 08:01:56;;;;;;;26.50;24.50;;;;;;;12.90;100.00;100532.78;5037430;28;20052;-82
2023/03/26 08:05:00;;;;;;;28.23;26.13;;;;;;;13.52;100.00;100533.34;5050142;28;20053;-82
2023/03/26 08:07:38;;;;;;;29.35;26.95;;;;;;;13.55;100.00;100532.06;5046402;28;20050;-82
2023/03/26 08:10:14;;;;;;;29.05;27.05;;;;;;;13.47;100.00;100535.91;5039734;28;20049;-82
2023/03/26 08:12:52;;;;;;;27.55;25.35;;;;;;;13.00;100.00;100533.06;5035126;28;20054;-82
2023/03/26 08:15:27;;;;;;;29.25;27.10;;;;;;;13.18;100.00;100538.34;5043388;28;20042;-82
2023/03/26 08:18:00;;;;;;;30.20;28.00;;;;;;;13.36;100.00;100542.81;5045824;28;20048;-83
2023/03/26 08:20:35;;;;;;;28.70;26.80;;;;;;;13.79;100.00;100540.91;5046829;28;20046;-82
2023/03/26 08:23:08;;;;;;;29.15;27.05;;;;;;;13.88;100.00;100535.00;5044055;28;20073;-82
2023/03/26 08:25:44;;;;;;;28.45;26.35;;;;;;;14.10;100.00;100547.75;5046740;28;20045;-83
2023/03/26 08:28:21;;;;;;;30.35;28.13;;;;;;;14.38;100.00;100552.41;5045065;28;20057;-83
2023/03/26 08:30:49;;;;;;;25.85;24.13;;;;;;;14.31;100.00;100555.19;5044760;28;20049;-82
2023/03/26 08:33:19;;;;;;;25.17;23.38;;;;;;;14.49;100.00;100562.22;5053840;28;20053;-82
2023/03/26 08:35:48;;;;;;;24.20;22.40;;;;;;;13.96;100.00;100558.69;5053498;28;20076;-82
2023/03/26 08:38:17;;;;;;;24.85;23.08;;;;;;;13.89;100.00;100555.34;5043989;28;20033;-83
2023/03/26 08:41:23;;;;;;;25.17;23.48;;;;;;;13.69;100.00;100557.50;5050644;28;20049;-82
2023/03/26 08:44:30;;;;;;;26.58;24.58;;;;;;;14.29;100.00;100570.66;5048645;28;20053;-82
2023/03/26 08:47:18;;;;;;;25.42;23.52;;;;;;;14.26;100.00;100563.09;5049671;28;20049;-82
2023/03/26 08:50:14;;;;;;;23.05;21.55;;;;;;;14.01;100.00;100559.84;5051663;28;20485;-83
2023/03/26 08:53:06;;;;;;;24.27;22.48;;;;;;;14.00;100.00;100563.56;5050164;28;20064;-83
2023/03/26 08:55:49;;;;;;;24.15;22.48;;;;;;;14.06;100.00;100547.41;5017392;28;20053;-82
2023/03/26 08:58:38;;;;;;;;;;;;;;;14.16;100.00;100550.34;5049124;28;20049;-83
2023/03/26 09:01:27;;;;;;;25.45;23.80;;;;;;;14.30;100.00;100552.75;5046479;28;19947;-83
2023/03/26 09:04:21;;;;;;;27.45;25.60;;;;;;;14.35;100.00;100545.66;5051209;28;20068;-83
2023/03/26 09:07:15;;;;;;;27.55;25.75;;;;;;;15.26;100.00;100550.38;5045860;28;20080;-82
2023/03/26 09:10:15;;;;;;;25.23;23.33;;;;;;;14.40;100.00;100545.78;5050382;28;20056;-82
2023/03/26 09:13:20;;;;;;;22.73;21.33;;;;;;;14.38;100.00;100545.19;5050861;28;20045;-82
2023/03/26 09:16:23;;;;;;;23.55;21.85;;;;;;;14.54;100.00;100549.03;5051364;28;20046;-82
2023/03/26 09:19:15;;;;;;;23.27;21.40;;;;;;;14.36;100.00;100533.91;5025052;28;20085;-83
2023/03/26 09:22:16;;;;;;;22.80;21.10;;;;;;;13.96;100.00;100523.16;5039356;28;20066;-83
2023/03/26 09:25:12;;;;;;;22.90;21.17;;;;;;;15.41;100.00;100521.22;5041216;28;20077;-82
2023/03/26 09:27:50;;;;;;;22.38;20.58;;;;;;;15.03;100.00;100528.03;5044151;28;20042;-82
2023/03/26 09:30:54;;;;;;;23.35;21.45;;;;;;;14.86;100.00;100521.84;5039117;28;20077;-82
2023/03/26 09:33:32;;;;;;;21.15;19.65;;;;;;;15.30;100.00;100522.09;5047160;28;20136;-82
2023/03/26 09:36:28;;;;;;;20.40;18.70;;;;;;;15.08;100.00;100519.31;5038179;28;20042;-83
2023/03/26 09:39:08;;;;;;;20.30;18.67;;;;;;;14.91;100.00;100523.78;5052631;28;20045;-82
2023/03/26 09:41:43;;;;;;;19.52;18.13;;;;;;;14.52;100.00;100516.38;5054665;28;20045;-83
2023/03/26 09:44:49;;;;;;;18.83;17.42;;;;;;;15.38;100.00;100519.03;5047799;28;20050;-83
2023/03/26 09:47:42;;;;;;;21.35;19.67;;;;;;;14.91;100.00;100524.59;5038444;28;20060;-82
2023/03/26 09:50:29;;;;;;;;;;;;;;;15.28;100.00;100500.94;5051436;28;20050;-82
2023/03/26 09:53:26;;;;;;;19.83;18.33;;;;;;;16.22;100.00;100512.81;5041661;28;19928;-83
2023/03/26 09:56:08;;;;;;;21.45;19.83;;;;;;;16.47;100.00;100515.81;5041178;28;20045;-82
2023/03/26 09:59:18;;;;;;;20.70;19.20;;;;;;;16.34;100.00;100515.34;5047121;28;20046;-82
2023/03/26 10:01:53;;;;;;;20.05;18.35;;;;;;;16.38;100.00;100506.56;5047971;28;20081;-83
2023/03/26 10:05:03;;;;;;;19.38;18.05;;;;;;;15.49;100.00;100504.75;5050914;28;20503;-83
2023/03/26 10:07:57;;;;;;;20.25;18.75;;;;;;;15.12;100.00;100507.88;5046551;28;20049;-82
2023/03/26 10:10:36;;;;;;;20.25;18.80;;;;;;;17.24;100.00;100503.19;5047186;28;20077;-83
2023/03/26 10:13:20;;;;;;;21.42;19.85;;;;;;;17.04;100.00;100495.00;5041005;28;20053;-83
2023/03/26 10:16:06;;;;;;;22.27;20.58;;;;;;;16.68;100.00;100482.00;5050745;28;20076;-83
2023/03/26 10:18:48;;;;;;;20.98;19.38;;;;;;;16.91;100.00;100477.41;5049276;28;20056;-83
2023/03/26 10:21:27;;;;;;;21.48;19.60;;;;;;;18.51;100.00;100483.56;5050999;28;20081;-82
2023/03/26 10:24:18;;;;;;;20.65;19.15;;;;;;;17.55;100.00;100474.75;5051833;28;20060;-83
2023/03/26 10:27:06;;;;;;;20.48;19.02;;;;;;;17.84;100.00;100471.72;5049875;28;20069;-83
2023/03/26 10:30:11;;;;;;;20.67;19.17;;;;;;;17.51;98.83;100472.81;5036888;28;20060;-82
2023/03/26 10:33:00;;;;;;;19.30;17.70;;;;;;;17.13;100.00;100483.53;5028695;28;20068;-82
2023/03/26 10:35:42;;;;;;;20.75;19.20;;;;;;;15.84;100.00;100490.31;5037059;28;20045;-82
2023/03/26 10:38:16;;;;;;;21.10;19.60;;;;;;;15.83;100.00;100488.69;5036505;28;20111;-82
2023/03/26 10:41:23;;;;;;;19.65;18.05;;;;;;;16.25;100.00;100480.97;5050118;28;20053;-83
2023/03/26 10:44:09;;;;;;;20.02;18.70;;;;;;;16.24;100.00;100478.53;5049442;28;20080;-83
2023/03/26 10:46:56;;;;;;;20.67;18.70;;;;;;;16.53;100.00;100476.47;5043495;28;20080;-82
2023/03/26 10:50:01;;;;;;;20.27;18.88;;;;;;;16.61;100.00;100464.47;5039665;28;20038;-83
2023/03/26 10:52:34;;;;;;;19.80;18.50;;;;;;;16.57;100.00;100452.63;4982749;28;20050;-83
2023/03/26 10:55:11;;;;;;;19.75;18.27;;;;;;;16.61;100.00;100459.09;5035828;28;20046;-83
2023/03/26 10:57:43;;;;;;;20.38;18.70;;;;;;;16.51;100.00;100450.97;5049673;28;20056;-82
2023/03/26 11:00:17;;;;;;;20.20;18.80;;;;;;;17.46;100.00;100443.25;5047281;28;20068;-82
2023/03/26 11:02:54;;;;;;;20.92;19.40;;;;;;;16.48;100.00;100445.03;5044292;28;20045;-83
2023/03/26 11:05:48;;;;;;;21.25;19.85;;;;;;;15.90;100.00;100446.47;5042888;28;20049;-82
2023/03/26 11:08:24;;;;;;;19.00;17.70;;;;;;;16.60;100.00;100420.75;5040793;28;20075;-82
2023/03/26 11:11:00;;;;;;;19.58;18.17;;;;;;;16.78;100.00;100419.63;5043012;28;20109;-82
2023/03/26 11:13:41;;;;;;;20.40;18.88;;;;;;;17.77;98.02;100428.97;5046314;28;20107;-82
2023/03/26 11:16:17;;;;;;;20.95;19.50;;;;;;;17.47;100.00;100426.88;5043454;28;20046;-82
2023/03/26 11:18:51;;;;;;;20.92;19.42;;;;;;;16.81;100.00;100423.69;5046005;28;20068;-83
2023/03/26 11:21:23;;;;;;;19.42;18.23;;;;;;;17.17;98.82;100427.47;5046443;28;20030;-83
2023/03/26 11:24:03;;;;;;;19.63;18.33;;;;;;;17.51;90.46;100424.50;5050206;28;20053;-83
2023/03/26 11:26:40;;;;;;;20.38;19.08;;;;;;;16.44;100.00;100422.47;5044484;28;20050;-82
2023/03/26 11:29:21;;;;;;;21.70;20.15;;;;;;;18.05;95.81;100421.59;5044894;28;20068;-82